Time;durP1;ratioP1;P1;durP2;ratioP2;P2;SDS_P1;SDS_P2;PMS_P1;PMS_P2;Temp;Humidity;BMP_temperature;BMP_pressure;BME280_temperature;BME280_humidity;BME280_pressure;Samples;Min_cycle;Max_cycle;Signal;HPM_P1;HPM_P2
2022/06/12 05:46:36;;;;;;;1.48;0.70;;;14.70;51.80;;;;;;4191598;26;20047;-70
2022/06/12 05:49:04;;;;;;;3.03;0.93;;;14.60;51.90;;;;;;4953967;28;20089;-69
2022/06/12 05:51:31;;;;;;;1.55;0.82;;;14.60;52.20;;;;;;4954098;28;20035;-69
2022/06/12 05:53:58;;;;;;;1.45;0.65;;;14.60;52.30;;;;;;4953812;28;20098;-72
2022/06/12 05:56:26;;;;;;;0.70;0.70;;;14.60;52.20;;;;;;4954287;28;20031;-70
2022/06/12 05:58:54;;;;;;;0.75;0.68;;;14.60;52.50;;;;;;4921545;28;20054;-71
2022/06/12 06:01:22;;;;;;;1.60;1.02;;;14.60;52.90;;;;;;4954068;28;20042;-70
2022/06/12 06:03:50;;;;;;;0.57;0.47;;;14.50;53.10;;;;;;4936962;28;20042;-70
2022/06/12 06:06:29;;;;;;;0.60;0.60;;;14.50;53.40;;;;;;4936912;29;20031;-69
2022/06/12 06:08:57;;;;;;;1.27;0.45;;;14.50;52.90;;;;;;4936729;28;20039;-71
2022/06/12 06:11:25;;;;;;;1.13;0.43;;;14.50;52.80;;;;;;4936695;28;20056;-69
2022/06/12 06:13:52;;;;;;;2.50;0.70;;;14.50;52.80;;;;;;4936610;29;20035;-69
2022/06/12 06:16:19;;;;;;;1.25;0.77;;;14.50;53.20;;;;;;4953962;28;20058;-69
2022/06/12 06:18:47;;;;;;;2.35;0.47;;;14.40;53.20;;;;;;4921136;29;20414;-70
2022/06/12 06:21:15;;;;;;;1.45;0.70;;;14.40;53.10;;;;;;4936920;28;20032;-70
2022/06/12 06:23:43;;;;;;;0.90;0.70;;;14.40;53.00;;;;;;4921618;29;20031;-70
2022/06/12 06:26:10;;;;;;;2.92;0.70;;;14.40;53.40;;;;;;4936784;28;20042;-69
2022/06/12 06:28:39;;;;;;;2.85;1.00;;;14.40;53.20;;;;;;4937079;29;20138;-69
2022/06/12 06:31:07;;;;;;;3.22;0.93;;;14.40;53.10;;;;;;4936353;28;20050;-70
2022/06/12 06:33:34;;;;;;;1.30;0.85;;;14.40;53.20;;;;;;4936546;28;20023;-70
2022/06/12 06:36:01;;;;;;;2.35;0.70;;;14.30;53.20;;;;;;4936323;29;20366;-70
2022/06/12 06:38:28;;;;;;;1.65;0.70;;;14.30;53.20;;;;;;4935498;28;20533;-69
2022/06/12 06:40:56;;;;;;;0.73;0.70;;;14.30;53.30;;;;;;4942493;28;20039;-69
2022/06/12 06:43:23;;;;;;;0.75;0.63;;;14.30;53.50;;;;;;4953129;28;20222;-70
2022/06/12 06:48:35;;;;;;;4.15;0.82;;;14.20;53.50;;;;;;4971150;28;20441;-70
2022/06/12 06:51:03;;;;;;;0.95;0.50;;;14.20;53.50;;;;;;4971169;28;20118;-70
2022/06/12 06:53:30;;;;;;;2.42;0.73;;;14.20;53.60;;;;;;4987594;28;20034;-71
2022/06/12 06:55:57;;;;;;;1.10;0.88;;;14.20;53.90;;;;;;4987249;28;20073;-70
2022/06/12 06:58:25;;;;;;;2.95;1.10;;;14.20;54.10;;;;;;4972521;28;20079;-70
2022/06/12 07:00:55;;;;;;;1.92;0.80;;;14.10;54.30;;;;;;4936368;28;20379;-70
2022/06/12 07:03:23;;;;;;;0.83;0.80;;;14.00;54.20;;;;;;4950011;28;20039;-70
2022/06/12 07:05:51;;;;;;;0.70;0.68;;;14.00;54.40;;;;;;4975124;28;20268;-70
2022/06/12 07:08:18;;;;;;;2.03;0.70;;;14.00;54.00;;;;;;4940291;28;20042;-70
2022/06/12 07:10:46;;;;;;;1.00;0.60;;;14.00;54.10;;;;;;4954238;28;20045;-71
2022/06/12 07:13:13;;;;;;;1.77;0.68;;;14.00;54.10;;;;;;4974616;28;20034;-70
2022/06/12 07:15:41;;;;;;;2.20;0.70;;;14.00;54.30;;;;;;4974940;28;20039;-70
2022/06/12 07:18:08;;;;;;;2.35;1.00;;;14.00;54.40;;;;;;4959138;28;20030;-71
2022/06/12 07:20:38;;;;;;;1.70;0.80;;;13.90;54.40;;;;;;4959139;28;20038;-70
2022/06/12 07:23:06;;;;;;;1.30;0.73;;;14.00;54.70;;;;;;4974790;28;20035;-70
2022/06/12 07:25:37;;;;;;;1.15;0.80;;;13.90;54.40;;;;;;4974830;28;20034;-71
2022/06/12 07:28:04;;;;;;;0.98;0.82;;;13.90;54.70;;;;;;4974734;28;20030;-70
2022/06/12 07:30:31;;;;;;;0.88;0.70;;;13.80;54.80;;;;;;4974518;28;20039;-70
2022/06/12 07:32:59;;;;;;;1.80;1.20;;;13.80;54.60;;;;;;4971832;28;20027;-70
2022/06/12 07:35:26;;;;;;;1.52;0.82;;;13.80;54.70;;;;;;4973446;28;20034;-70
2022/06/12 07:37:53;;;;;;;2.53;0.93;;;13.80;54.90;;;;;;4974655;28;20073;-70
2022/06/12 07:40:25;;;;;;;0.50;0.50;;;13.80;55.00;;;;;;4975651;28;20039;-71
2022/06/12 07:42:53;;;;;;;3.10;0.73;;;13.80;55.20;;;;;;4958867;28;20097;-70
2022/06/12 07:45:20;;;;;;;1.35;0.85;;;13.70;55.40;;;;;;4981428;28;20034;-70
2022/06/12 07:47:47;;;;;;;2.50;0.90;;;13.70;55.60;;;;;;4961797;28;20061;-70
2022/06/12 07:50:15;;;;;;;2.17;0.90;;;13.70;55.50;;;;;;4977667;28;20034;-71
2022/06/12 07:52:42;;;;;;;1.10;0.90;;;13.70;55.70;;;;;;4977945;28;20077;-70
2022/06/12 07:55:11;;;;;;;1.15;0.75;;;13.70;55.80;;;;;;4978042;28;20079;-71
2022/06/12 07:57:39;;;;;;;1.52;0.95;;;13.70;56.20;;;;;;4994682;28;20042;-70
2022/06/12 08:00:07;;;;;;;2.17;0.90;;;13.70;56.60;;;;;;4994937;28;20036;-71
2022/06/12 08:02:34;;;;;;;1.73;1.00;;;13.70;56.50;;;;;;4977463;28;20098;-71
2022/06/12 08:05:02;;;;;;;1.52;0.90;;;13.60;56.30;;;;;;4977553;28;20073;-70
2022/06/12 08:07:29;;;;;;;1.30;0.85;;;13.60;56.40;;;;;;4977027;28;20034;-71
2022/06/12 08:09:57;;;;;;;1.45;1.10;;;13.50;56.60;;;;;;4994359;28;20053;-70
2022/06/12 08:12:24;;;;;;;1.42;0.88;;;13.50;56.50;;;;;;4977252;28;20041;-70
2022/06/12 08:14:53;;;;;;;3.63;2.08;;;13.50;56.70;;;;;;4994670;28;20034;-70
2022/06/12 08:17:20;;;;;;;3.25;1.20;;;13.50;56.70;;;;;;4977626;28;20031;-70
2022/06/12 08:22:33;;;;;;;3.63;1.40;;;13.50;57.10;;;;;;4979526;28;20041;-71
2022/06/12 08:25:00;;;;;;;1.50;0.80;;;13.50;57.00;;;;;;4961205;28;20038;-71
2022/06/12 08:27:27;;;;;;;1.35;1.00;;;13.50;57.40;;;;;;4958519;28;20065;-70
2022/06/12 08:29:55;;;;;;;1.00;0.80;;;13.50;57.30;;;;;;4993166;28;20034;-70
2022/06/12 08:32:22;;;;;;;2.67;0.88;;;13.50;57.20;;;;;;4949619;28;20050;-70
2022/06/12 08:35:01;;;;;;;2.08;1.00;;;13.40;57.60;;;;;;4958645;28;20038;-70
2022/06/12 08:37:31;;;;;;;1.27;0.98;;;13.40;57.50;;;;;;4976690;28;20026;-70
2022/06/12 08:39:59;;;;;;;1.35;1.10;;;13.40;57.80;;;;;;4994356;28;20097;-70
2022/06/12 08:42:37;;;;;;;1.38;0.88;;;13.40;58.10;;;;;;4994176;28;20358;-70
2022/06/12 08:45:08;;;;;;;1.20;0.90;;;13.30;57.90;;;;;;4961775;28;20041;-70
2022/06/12 08:47:53;;;;;;;1.60;1.15;;;13.30;58.10;;;;;;4995356;28;20034;-70
2022/06/12 08:50:22;;;;;;;1.05;0.88;;;13.30;58.00;;;;;;4993574;28;20038;-70
2022/06/12 08:53:27;;;;;;;1.33;0.98;;;13.30;58.60;;;;;;4976447;28;20173;-70
2022/06/12 08:55:57;;;;;;;1.35;0.85;;;13.30;58.40;;;;;;4977024;28;20037;-70
2022/06/12 08:58:49;;;;;;;1.58;0.75;;;13.30;58.40;;;;;;4976655;28;20092;-70
2022/06/12 09:01:16;;;;;;;0.80;0.80;;;13.30;58.40;;;;;;4981019;28;20030;-70
2022/06/12 09:03:51;;;;;;;1.83;0.85;;;13.30;58.60;;;;;;4993681;28;20039;-70
2022/06/12 09:06:26;;;;;;;1.55;0.88;;;13.30;59.00;;;;;;4993522;28;20027;-70
2022/06/12 09:09:02;;;;;;;1.50;0.73;;;13.30;58.80;;;;;;4976246;28;20030;-69
2022/06/12 09:11:43;;;;;;;2.20;0.68;;;13.20;59.00;;;;;;4964941;28;20072;-70
2022/06/12 09:14:37;;;;;;;2.72;0.70;;;13.30;58.90;;;;;;4960467;28;20454;-71
2022/06/12 09:17:30;;;;;;;0.95;0.65;;;13.20;59.00;;;;;;4977985;28;20436;-69
2022/06/12 09:20:02;;;;;;;1.20;0.85;;;13.20;59.10;;;;;;4962104;28;20031;-70
2022/06/12 09:22:47;;;;;;;2.42;0.80;;;13.20;59.10;;;;;;4972777;28;20122;-70
2022/06/12 09:25:19;;;;;;;1.90;0.77;;;13.20;59.10;;;;;;4981239;28;20061;-70
2022/06/12 09:27:47;;;;;;;1.08;0.82;;;13.20;59.50;;;;;;4975280;28;20457;-71
2022/06/12 09:30:21;;;;;;;0.93;0.82;;;13.20;59.60;;;;;;4975456;28;20130;-71
2022/06/12 09:32:55;;;;;;;2.22;1.00;;;13.10;59.60;;;;;;4959573;28;20081;-71
2022/06/12 09:35:34;;;;;;;1.50;0.80;;;13.10;59.80;;;;;;4992763;28;20034;-71
2022/06/12 09:38:24;;;;;;;1.65;0.90;;;13.10;59.80;;;;;;4992816;28;20374;-71
2022/06/12 09:41:18;;;;;;;2.35;1.38;;;13.10;60.00;;;;;;4963276;28;20038;-71
2022/06/12 09:44:07;;;;;;;1.10;0.80;;;13.10;60.10;;;;;;4975457;28;20097;-70
2022/06/12 09:46:39;;;;;;;1.95;0.95;;;13.00;60.00;;;;;;4976726;28;20058;-71
2022/06/12 09:49:46;;;;;;;1.63;0.88;;;13.00;60.20;;;;;;4992628;28;20054;-70
2022/06/12 09:52:20;;;;;;;1.55;1.05;;;13.00;60.30;;;;;;4947109;28;20041;-71
2022/06/12 09:55:22;;;;;;;1.55;1.25;;;13.00;60.50;;;;;;4992682;28;20038;-71
2022/06/12 09:58:08;;;;;;;1.83;1.02;;;13.00;60.60;;;;;;4967743;28;20043;-70
2022/06/12 10:00:58;;;;;;;2.45;1.02;;;12.90;60.80;;;;;;4992227;28;20057;-70
2022/06/12 10:03:31;;;;;;;1.45;1.17;;;12.90;60.70;;;;;;4975118;28;20030;-70
2022/06/12 10:06:04;;;;;;;2.47;1.30;;;12.90;60.90;;;;;;4991991;28;20037;-70
2022/06/12 10:08:31;;;;;;;2.85;1.30;;;12.90;61.00;;;;;;4992434;28;20031;-70
2022/06/12 10:11:18;;;;;;;4.68;1.20;;;12.80;61.00;;;;;;4992276;28;20038;-71
2022/06/12 10:14:04;;;;;;;1.52;1.08;;;12.80;61.30;;;;;;4992186;28;20508;-71
2022/06/12 10:16:41;;;;;;;2.03;1.23;;;12.80;61.40;;;;;;4978879;28;20505;-71
2022/06/12 10:19:17;;;;;;;2.83;1.30;;;12.70;61.50;;;;;;5001404;28;20035;-71
2022/06/12 10:21:47;;;;;;;3.30;1.63;;;12.70;61.80;;;;;;4975414;28;20045;-71
2022/06/12 10:24:14;;;;;;;3.00;1.70;;;12.70;61.90;;;;;;4959210;28;20437;-71
2022/06/12 10:26:51;;;;;;;3.83;1.70;;;12.70;62.10;;;;;;4959087;28;20058;-71
2022/06/12 10:29:24;;;;;;;3.30;1.90;;;12.60;62.30;;;;;;4974900;28;20046;-71
2022/06/12 10:31:58;;;;;;;4.15;1.80;;;12.60;62.40;;;;;;4986912;28;20038;-70
2022/06/12 10:34:30;;;;;;;3.85;1.90;;;12.50;62.60;;;;;;4965758;28;20105;-70
2022/06/12 10:37:09;;;;;;;2.45;1.50;;;12.50;62.60;;;;;;4988314;28;20026;-71
2022/06/12 10:39:36;;;;;;;3.08;1.60;;;12.50;62.60;;;;;;4991920;28;20109;-70
2022/06/12 10:42:08;;;;;;;3.67;1.67;;;12.40;62.70;;;;;;4974023;28;20038;-71
2022/06/12 10:44:36;;;;;;;3.83;1.52;;;12.50;62.70;;;;;;4974122;28;20034;-70
2022/06/12 10:47:21;;;;;;;3.03;1.70;;;12.50;62.70;;;;;;4991322;28;20039;-70
2022/06/12 10:50:19;;;;;;;3.13;1.60;;;12.40;62.70;;;;;;4989498;28;20034;-70
2022/06/12 17:44:28;;;;;;;4.30;2.50;;;10.00;72.00;;;;;;4988054;28;20117;-69
2022/06/12 17:46:55;;;;;;;3.72;2.28;;;9.90;72.50;;;;;;4951554;28;20042;-69
2022/06/12 17:49:23;;;;;;;3.45;2.33;;;9.90;72.70;;;;;;4973091;28;20046;-70
2022/06/12 17:51:50;;;;;;;4.05;2.45;;;9.90;72.90;;;;;;4973734;28;20118;-69
2022/06/12 17:54:18;;;;;;;6.55;2.78;;;9.90;72.90;;;;;;4973157;28;20031;-70
2022/06/12 17:56:46;;;;;;;5.57;2.50;;;9.90;73.00;;;;;;4971801;28;20035;-69
2022/06/12 17:59:13;;;;;;;4.53;2.38;;;9.90;72.90;;;;;;4984274;28;20031;-69
2022/06/12 18:01:40;;;;;;;4.55;2.15;;;9.90;73.30;;;;;;4955627;28;20028;-69
2022/06/12 18:04:08;;;;;;;4.95;2.67;;;9.80;73.70;;;;;;4955608;28;20506;-69
2022/06/12 18:06:35;;;;;;;4.18;2.65;;;9.80;74.30;;;;;;4987888;28;20042;-70
2022/06/12 18:09:03;;;;;;;4.82;2.50;;;9.70;74.20;;;;;;4956199;28;20040;-69
2022/06/12 18:11:31;;;;;;;3.38;2.40;;;9.70;74.70;;;;;;4988155;28;20047;-70
2022/06/12 18:13:58;;;;;;;3.75;2.20;;;9.70;74.80;;;;;;4971687;28;20027;-70
2022/06/12 18:19:16;;;;;;;3.78;2.25;;;9.80;74.80;;;;;;4959768;28;20512;-70
2022/06/12 18:21:45;;;;;;;4.00;2.20;;;9.90;74.50;;;;;;4955823;28;20485;-70
2022/06/12 18:24:14;;;;;;;3.67;2.10;;;9.90;74.50;;;;;;4971601;28;20038;-70
2022/06/12 18:26:41;;;;;;;3.78;1.88;;;9.90;74.40;;;;;;4987849;28;20034;-70
2022/06/12 18:29:10;;;;;;;3.13;1.95;;;9.90;74.50;;;;;;4955691;28;20043;-70
2022/06/12 18:31:38;;;;;;;2.50;1.85;;;9.80;74.50;;;;;;4988143;28;20026;-69
2022/06/12 18:34:05;;;;;;;3.60;1.90;;;9.80;74.50;;;;;;4971574;28;20048;-70
2022/06/12 18:36:33;;;;;;;4.75;1.90;;;9.90;74.30;;;;;;4955867;28;20070;-70
2022/06/12 18:39:00;;;;;;;4.95;1.75;;;10.00;74.30;;;;;;4955826;28;20031;-70
2022/06/12 18:41:28;;;;;;;2.40;1.80;;;9.90;74.50;;;;;;4987636;28;20031;-69
2022/06/12 18:43:56;;;;;;;3.33;1.80;;;9.90;74.50;;;;;;4971820;28;20526;-70
